Time;durP1;ratioP1;P1;durP2;ratioP2;P2;SDS_P1;SDS_P2;PMS_P1;PMS_P2;Temp;Humidity;BMP_temperature;BMP_pressure;BME280_temperature;BME280_humidity;BME280_pressure;Samples;Min_cycle;Max_cycle;Signal;HPM_P1;HPM_P2
2022/03/28 00:01:58;;;;;;;0.10;0.10;;;;;;;11.21;56.76;102895.78;5016151;28;20040;-85
2022/03/28 00:04:24;;;;;;;0.20;0.20;;;;;;;11.12;56.98;102898.34;5015524;28;20040;-84
2022/03/28 00:06:51;;;;;;;0.10;0.10;;;;;;;11.15;56.77;102895.69;5018668;28;20037;-84
2022/03/28 00:09:17;;;;;;;0.00;0.00;;;;;;;11.18;56.67;102893.09;5020022;28;20046;-85
2022/03/28 00:11:43;;;;;;;0.10;0.10;;;;;;;11.18;57.32;102893.09;5021107;28;20054;-84
2022/03/28 00:14:09;;;;;;;0.08;0.08;;;;;;;11.16;57.46;102878.91;5023827;28;20101;-85
2022/03/28 00:16:36;;;;;;;0.10;0.10;;;;;;;11.13;56.81;102885.09;5021688;28;20046;-85
2022/03/28 00:19:03;;;;;;;0.52;0.52;;;;;;;11.10;56.63;102884.16;5020595;28;20064;-85
2022/03/28 00:21:29;;;;;;;0.10;0.10;;;;;;;11.07;56.65;102885.03;5022015;28;20049;-86
2022/03/28 00:23:55;;;;;;;0.10;0.10;;;;;;;11.05;56.53;102875.25;5022962;28;20033;-84
2022/03/28 00:26:22;;;;;;;0.10;0.10;;;;;;;11.02;57.76;102875.25;5022322;28;20045;-85
2022/03/28 00:28:48;;;;;;;0.10;0.10;;;;;;;10.97;57.37;102873.41;5027180;28;20061;-85
2022/03/28 00:31:15;;;;;;;0.08;0.08;;;;;;;10.99;56.50;102873.41;5024479;28;20076;-85
2022/03/28 00:33:41;;;;;;;0.70;0.70;;;;;;;10.98;57.30;102869.88;5028049;28;20030;-85
2022/03/28 00:36:07;;;;;;;0.10;0.10;;;;;;;10.95;57.50;102872.53;5029186;28;20049;-85
2022/03/28 00:38:33;;;;;;;0.10;0.10;;;;;;;10.93;57.06;102862.75;5029780;28;20068;-85
2022/03/28 00:41:00;;;;;;;0.10;0.10;;;;;;;10.93;58.19;102870.69;5025450;28;20053;-85
2022/03/28 00:43:30;;;;;;;0.30;0.30;;;;;;;10.90;56.62;102858.28;5026923;28;20025;-84
2022/03/28 00:45:56;;;;;;;0.10;0.10;;;;;;;10.88;56.81;102857.41;5027272;28;20132;-84
2022/03/28 00:48:26;;;;;;;0.10;0.10;;;;;;;10.87;57.82;102855.63;5024805;28;20034;-84
2022/03/28 00:50:53;;;;;;;1.38;1.25;;;;;;;10.86;57.27;102859.16;5023569;28;21230;-84
2022/03/28 00:53:20;;;;;;;0.10;0.10;;;;;;;10.83;56.98;102860.00;5025073;28;20026;-84
2022/03/28 00:55:46;;;;;;;0.05;0.05;;;;;;;10.80;57.81;102854.69;5031003;28;20025;-84
2022/03/28 00:58:12;;;;;;;0.10;0.10;;;;;;;10.79;57.02;102852.00;5026104;28;20076;-84
2022/03/28 01:00:38;;;;;;;0.10;0.10;;;;;;;10.77;57.97;102848.44;5023564;28;20042;-84
2022/03/28 01:03:05;;;;;;;0.00;0.00;;;;;;;10.73;57.89;102844.88;5026150;28;20037;-83
2022/03/28 01:05:31;;;;;;;0.10;0.10;;;;;;;10.72;57.71;102842.22;5023204;28;20046;-83
2022/03/28 01:07:57;;;;;;;0.10;0.10;;;;;;;10.71;57.31;102845.72;5027069;28;20033;-83
2022/03/28 01:10:24;;;;;;;0.10;0.10;;;;;;;10.68;57.19;102834.22;5022997;28;20057;-84
2022/03/28 01:12:50;;;;;;;0.10;0.10;;;;;;;10.67;57.79;102832.41;5017150;28;20090;-84
2022/03/28 01:15:16;;;;;;;0.00;0.00;;;;;;;10.65;58.46;102827.97;5020181;28;20050;-84
2022/03/28 01:18:16;;;;;;;0.10;0.10;;;;;;;10.64;57.68;102832.41;5018168;28;20551;-85
2022/03/28 01:20:32;;;;;;;0.00;0.00;;;;;;;10.62;58.34;102826.19;5014993;28;20058;-84
2022/03/28 01:22:59;;;;;;;0.60;0.60;;;;;;;10.60;59.17;102814.66;5016585;28;20030;-85
2022/03/28 01:25:27;;;;;;;0.10;0.10;;;;;;;10.58;58.03;102813.78;5019914;28;20152;-85
2022/03/28 01:27:54;;;;;;;0.20;0.20;;;;;;;10.58;57.30;102819.06;5012670;28;20356;-84
2022/03/28 01:30:21;;;;;;;0.10;0.10;;;;;;;10.56;57.87;102818.16;5014383;28;20038;-84
2022/03/28 01:32:49;;;;;;;0.10;0.10;;;;;;;10.55;58.26;102816.38;5011592;28;20398;-84
2022/03/28 01:35:35;;;;;;;0.05;0.05;;;;;;;10.59;57.85;102818.22;5010422;28;20038;-84
2022/03/28 01:38:04;;;;;;;0.03;0.03;;;;;;;10.49;57.96;102817.22;5010087;28;20402;-84
2022/03/28 01:40:33;;;;;;;19.70;1.17;;;;;;;10.49;58.40;102811.00;5013732;28;20036;-83
2022/03/28 01:42:59;;;;;;;0.08;0.08;;;;;;;10.44;58.00;102812.69;5009972;28;20033;-83
2022/03/28 01:45:26;;;;;;;0.00;0.00;;;;;;;10.41;57.60;102810.03;5016340;28;20033;-83
2022/03/28 01:47:53;;;;;;;0.10;0.10;;;;;;;10.35;58.77;102803.75;5014541;28;20029;-83
2022/03/28 01:50:20;;;;;;;0.00;0.00;;;;;;;10.33;58.46;102805.47;5011668;28;20034;-84
2022/03/28 01:52:46;;;;;;;1.38;0.65;;;;;;;10.31;58.01;102801.91;5009480;28;20061;-83
2022/03/28 01:55:13;;;;;;;0.00;0.00;;;;;;;10.27;59.50;102793.91;5013097;28;20068;-84
2022/03/28 01:57:41;;;;;;;0.10;0.10;;;;;;;10.22;59.20;102791.22;5011123;28;20097;-84
2022/03/28 02:00:12;;;;;;;0.10;0.10;;;;;;;10.17;59.81;102790.28;5013341;28;20052;-85
2022/03/28 02:02:38;;;;;;;0.03;0.03;;;;;;;10.13;59.30;102785.78;5010754;28;20038;-85
2022/03/28 02:05:05;;;;;;;0.00;0.00;;;;;;;10.10;59.07;102791.06;5018292;28;20030;-85
2022/03/28 02:07:33;;;;;;;0.10;0.10;;;;;;;10.06;59.62;102783.94;5017225;28;20036;-85
2022/03/28 02:09:59;;;;;;;0.10;0.10;;;;;;;10.01;60.55;102783.88;5015250;28;20061;-85
2022/03/28 02:12:25;;;;;;;0.10;0.10;;;;;;;9.99;59.45;102778.56;5015380;28;20030;-85
2022/03/28 02:14:51;;;;;;;0.10;0.10;;;;;;;9.99;58.61;102772.38;5017238;28;20035;-85
2022/03/28 02:17:17;;;;;;;0.08;0.08;;;;;;;9.96;59.13;102773.22;5023052;28;20065;-85
2022/03/28 02:19:43;;;;;;;0.00;0.00;;;;;;;9.94;59.39;102777.59;5014556;28;20038;-84
2022/03/28 02:22:10;;;;;;;0.08;0.08;;;;;;;9.91;59.50;102780.22;5020991;28;20034;-85
2022/03/28 02:24:36;;;;;;;0.03;0.03;;;;;;;9.92;58.50;102781.09;5030209;28;20066;-85
2022/03/28 02:27:02;;;;;;;0.10;0.10;;;;;;;9.88;59.33;102769.56;5036071;28;20294;-85
2022/03/28 02:29:28;;;;;;;0.20;0.20;;;;;;;9.86;59.19;102766.03;5022503;28;20037;-84
2022/03/28 02:31:54;;;;;;;0.20;0.20;;;;;;;9.84;59.01;102762.44;5023239;28;20030;-85
2022/03/28 02:34:21;;;;;;;0.73;0.73;;;;;;;9.80;59.26;102763.28;5027532;28;20038;-84
2022/03/28 02:36:47;;;;;;;0.10;0.10;;;;;;;9.79;59.63;102764.16;5018774;28;20065;-84
2022/03/28 02:39:13;;;;;;;0.10;0.10;;;;;;;9.77;59.97;102757.94;5019530;28;20090;-84
2022/03/28 02:41:39;;;;;;;0.10;0.10;;;;;;;9.75;58.72;102752.63;5017918;28;20595;-84
2022/03/28 02:44:05;;;;;;;0.10;0.10;;;;;;;9.73;60.10;102754.34;5017747;28;20038;-84
2022/03/28 02:46:32;;;;;;;0.10;0.10;;;;;;;9.70;59.49;102744.59;5015570;28;20034;-84
2022/03/28 02:48:58;;;;;;;0.10;0.10;;;;;;;9.67;60.44;102739.28;5015945;28;20041;-84
2022/03/28 02:51:24;;;;;;;0.45;0.43;;;;;;;9.65;59.09;102735.72;5016712;28;20095;-84
2022/03/28 02:53:51;;;;;;;0.05;0.05;;;;;;;9.65;59.22;102730.44;5016658;28;20088;-84
2022/03/28 02:56:17;;;;;;;0.10;0.10;;;;;;;9.65;59.70;102730.44;5017020;28;20076;-84
2022/03/28 02:58:43;;;;;;;0.10;0.10;;;;;;;9.63;60.02;102724.25;5016071;28;20029;-84
2022/03/28 03:01:09;;;;;;;0.00;0.00;;;;;;;9.61;60.78;102728.63;5016804;28;20497;-84
2022/03/28 03:03:35;;;;;;;0.08;0.08;;;;;;;9.60;58.73;102731.25;5019470;28;20045;-84
2022/03/28 03:06:02;;;;;;;0.00;0.00;;;;;;;9.61;58.75;102718.03;5019885;28;20102;-84
2022/03/28 03:08:29;;;;;;;0.08;0.08;;;;;;;9.62;59.23;102725.09;5020229;28;20113;-84
2022/03/28 03:10:55;;;;;;;0.20;0.20;;;;;;;9.62;59.36;102727.75;5015845;28;20046;-85
2022/03/28 03:13:21;;;;;;;0.20;0.20;;;;;;;9.61;58.92;102717.13;5017075;28;20702;-85
2022/03/28 03:15:47;;;;;;;0.10;0.10;;;;;;;9.59;58.84;102719.75;5016333;28;20315;-84
2022/03/28 03:18:13;;;;;;;0.10;0.10;;;;;;;9.57;60.23;102721.50;5026007;28;20065;-84
2022/03/28 03:20:39;;;;;;;0.63;0.63;;;;;;;9.52;59.54;102715.22;5022148;28;20045;-84
2022/03/28 03:23:05;;;;;;;0.10;0.10;;;;;;;9.49;59.74;102709.91;5018008;28;20042;-84
2022/03/28 03:25:32;;;;;;;0.10;0.10;;;;;;;9.47;60.37;102706.34;5019009;28;20045;-84
2022/03/28 03:27:58;;;;;;;0.10;0.10;;;;;;;9.40;60.91;102708.03;5022306;28;20237;-84
2022/03/28 03:30:24;;;;;;;0.10;0.10;;;;;;;9.38;59.59;102707.09;5022605;28;20048;-84
2022/03/28 03:32:50;;;;;;;0.10;0.10;;;;;;;9.33;60.33;102704.41;5020078;28;20038;-85
2022/03/28 03:35:16;;;;;;;0.10;0.10;;;;;;;9.33;59.14;102703.50;5017499;28;20039;-84
2022/03/28 03:37:42;;;;;;;0.10;0.10;;;;;;;9.31;60.49;102700.84;5015795;28;21414;-84
2022/03/28 03:40:12;;;;;;;0.10;0.10;;;;;;;9.30;60.19;102701.69;5018098;28;20034;-84
2022/03/28 03:42:38;;;;;;;0.10;0.10;;;;;;;9.28;59.94;102695.47;5016249;28;20029;-84
2022/03/28 03:45:05;;;;;;;0.00;0.00;;;;;;;9.25;60.15;102694.56;5018121;28;20038;-84
2022/03/28 03:47:31;;;;;;;0.10;0.10;;;;;;;9.23;59.45;102694.53;5018069;28;20045;-84
2022/03/28 03:49:58;;;;;;;0.10;0.10;;;;;;;9.19;60.66;102688.28;5020265;28;20030;-84
2022/03/28 03:52:24;;;;;;;0.10;0.10;;;;;;;9.17;61.04;102687.41;5020864;28;20401;-84
2022/03/28 03:54:50;;;;;;;0.10;0.10;;;;;;;9.17;59.67;102686.50;5020040;28;20034;-83
2022/03/28 03:57:16;;;;;;;0.10;0.10;;;;;;;9.14;60.37;102683.81;5029203;28;20117;-83
2022/03/28 03:59:42;;;;;;;0.08;0.08;;;;;;;9.16;59.51;102682.97;5032213;28;20064;-82
2022/03/28 04:02:08;;;;;;;0.10;0.10;;;;;;;9.18;59.69;102680.34;5023157;28;20038;-84
2022/03/28 04:04:34;;;;;;;0.10;0.10;;;;;;;9.17;59.45;102670.63;5021581;28;20025;-84
2022/03/28 04:07:01;;;;;;;0.10;0.10;;;;;;;9.13;60.94;102672.34;5019663;28;20105;-84
2022/03/28 04:09:27;;;;;;;0.10;0.10;;;;;;;9.11;61.20;102667.88;5022452;28;20026;-84
2022/03/28 04:11:53;;;;;;;0.10;0.10;;;;;;;9.09;59.80;102669.63;5022942;28;20034;-84
2022/03/28 04:14:19;;;;;;;0.05;0.05;;;;;;;9.04;59.69;102665.16;5021321;28;20509;-84
2022/03/28 04:16:45;;;;;;;0.10;0.10;;;;;;;9.03;60.76;102665.13;5027803;28;20030;-84
2022/03/28 04:19:12;;;;;;;0.10;0.10;;;;;;;8.99;61.60;102664.19;5022011;28;20048;-84
2022/03/28 04:21:39;;;;;;;0.10;0.10;;;;;;;8.97;60.54;102668.59;5022736;28;20340;-84
2022/03/28 04:24:05;;;;;;;0.10;0.10;;;;;;;8.96;60.03;102661.50;5018392;28;20044;-83
2022/03/28 04:26:32;;;;;;;0.10;0.10;;;;;;;8.94;61.30;102665.00;5021266;28;20057;-84
2022/03/28 04:28:58;;;;;;;0.10;0.10;;;;;;;8.93;61.09;102660.56;5019157;28;20769;-84
2022/03/28 04:31:24;;;;;;;0.00;0.00;;;;;;;8.91;59.48;102663.19;5018245;28;20113;-84
2022/03/28 04:33:50;;;;;;;0.05;0.05;;;;;;;8.90;60.47;102659.66;5019863;28;20038;-84
2022/03/28 04:36:16;;;;;;;0.10;0.10;;;;;;;8.91;59.93;102671.13;5019904;28;20034;-84
2022/03/28 04:38:42;;;;;;;0.10;0.10;;;;;;;8.90;59.63;102664.06;5021433;28;20026;-84
2022/03/28 04:41:08;;;;;;;0.10;0.10;;;;;;;8.90;60.32;102674.63;5019080;28;20045;-84
2022/03/28 04:43:34;;;;;;;0.10;0.10;;;;;;;8.87;60.73;102674.56;5022197;28;20038;-84
2022/03/28 04:46:00;;;;;;;0.10;0.10;;;;;;;8.86;59.92;102671.03;5021594;28;20033;-84
2022/03/28 04:48:27;;;;;;;0.10;0.10;;;;;;;8.86;60.71;102672.78;5024246;28;20034;-84
2022/03/28 04:50:53;;;;;;;0.10;0.10;;;;;;;8.86;60.27;102672.78;5016338;28;20721;-84
2022/03/28 04:53:19;;;;;;;0.45;0.45;;;;;;;8.88;60.19;102681.63;5019088;28;20374;-84
2022/03/28 04:55:45;;;;;;;0.10;0.10;;;;;;;8.86;60.07;102675.41;5023913;28;20056;-84
2022/03/28 04:58:11;;;;;;;0.10;0.10;;;;;;;8.82;61.56;102673.59;5020150;28;20156;-83
2022/03/28 05:00:37;;;;;;;0.00;0.00;;;;;;;8.79;61.01;102660.34;5019898;28;20026;-84
2022/03/28 05:03:03;;;;;;;0.63;0.63;;;;;;;8.77;61.08;102664.72;5020226;28;20042;-84
2022/03/28 05:05:29;;;;;;;0.10;0.10;;;;;;;8.72;62.10;102656.69;5022301;28;20097;-84
2022/03/28 05:07:55;;;;;;;0.10;0.10;;;;;;;8.70;61.59;102661.09;5022006;28;20050;-84
2022/03/28 05:10:22;;;;;;;0.10;0.10;;;;;;;8.67;61.74;102651.34;5018499;28;20269;-84
2022/03/28 05:12:48;;;;;;;0.00;0.00;;;;;;;8.65;62.35;102642.50;5018002;28;20053;-84
2022/03/28 05:15:14;;;;;;;0.00;0.00;;;;;;;8.64;62.90;102639.84;5019435;28;20034;-84
2022/03/28 05:17:41;;;;;;;0.22;0.22;;;;;;;8.63;61.60;102632.78;5017427;28;20026;-84
2022/03/28 05:20:09;;;;;;;0.10;0.10;;;;;;;8.62;61.00;102636.28;5026593;28;20034;-83
2022/03/28 05:22:35;;;;;;;0.20;0.20;;;;;;;8.60;62.73;102640.63;5029178;28;20245;-83
2022/03/28 05:25:02;;;;;;;0.10;0.10;;;;;;;8.57;61.45;102647.66;5022105;28;20034;-84
2022/03/28 05:27:28;;;;;;;0.10;0.10;;;;;;;8.53;61.84;102640.53;5020392;28;20067;-84
2022/03/28 05:29:55;;;;;;;0.00;0.00;;;;;;;8.51;62.84;102644.00;4999606;22;20287;-82
2022/03/28 05:32:21;;;;;;;0.10;0.10;;;;;;;8.49;63.23;102646.63;5026599;28;20042;-82
2022/03/28 05:34:47;;;;;;;0.10;0.10;;;;;;;8.50;61.87;102639.56;5027153;28;20051;-79
2022/03/28 05:37:16;;;;;;;0.13;0.13;;;;;;;8.51;61.77;102644.00;5025950;28;20120;-81
2022/03/28 05:39:45;;;;;;;0.10;0.10;;;;;;;8.51;62.91;102644.00;5027270;28;20045;-81
2022/03/28 05:42:11;;;;;;;0.10;0.10;;;;;;;8.51;62.15;102639.63;5025214;28;20129;-80
2022/03/28 05:44:41;;;;;;;0.10;0.10;;;;;;;8.52;62.68;102645.78;5030187;28;20094;-80
2022/03/28 05:47:07;;;;;;;0.20;0.20;;;;;;;8.51;62.52;102644.00;5027336;28;20029;-82
2022/03/28 05:49:33;;;;;;;0.10;0.10;;;;;;;8.48;63.26;102639.56;5028355;28;20032;-81
2022/03/28 05:52:00;;;;;;;0.10;0.10;;;;;;;8.47;62.78;102632.50;5026184;28;20409;-80
2022/03/28 05:54:26;;;;;;;0.10;0.10;;;;;;;8.46;63.56;102635.06;5028136;28;20175;-81
2022/03/28 05:56:52;;;;;;;0.10;0.10;;;;;;;8.49;63.37;102635.19;5028480;28;20044;-81
2022/03/28 05:59:18;;;;;;;0.55;0.55;;;;;;;8.50;63.19;102631.66;5024728;28;20041;-80
2022/03/28 06:01:44;;;;;;;0.10;0.10;;;;;;;8.51;63.49;102629.06;5024604;28;20026;-80
2022/03/28 06:04:11;;;;;;;0.10;0.10;;;;;;;8.54;62.92;102622.94;5026894;28;20037;-80
2022/03/28 06:06:37;;;;;;;0.10;0.10;;;;;;;8.57;63.38;102617.69;5026226;28;20184;-82
2022/03/28 06:09:04;;;;;;;0.10;0.10;;;;;;;8.61;62.93;102616.00;5025054;28;20037;-80
2022/03/28 06:11:30;;;;;;;0.10;0.10;;;;;;;8.63;63.37;102622.19;5024151;28;20033;-81
2022/03/28 06:13:57;;;;;;;0.10;0.10;;;;;;;8.64;63.32;102624.88;5025681;28;20354;-82
2022/03/28 06:16:24;;;;;;;0.10;0.10;;;;;;;8.68;62.88;102624.03;5024149;28;20223;-80
2022/03/28 06:18:50;;;;;;;0.20;0.20;;;;;;;8.76;62.71;102628.56;5022534;28;20455;-81
2022/03/28 06:21:16;;;;;;;0.10;0.10;;;;;;;8.81;63.45;102630.44;5025167;28;20060;-81
2022/03/28 06:23:43;;;;;;;0.10;0.10;;;;;;;8.85;63.23;102634.03;5026985;28;20424;-82
2022/03/28 06:26:10;;;;;;;0.10;0.10;;;;;;;8.86;63.61;102626.09;5025191;28;20067;-82
2022/03/28 06:28:39;;;;;;;0.10;0.10;;;;;;;8.91;62.67;102628.84;5022246;28;20057;-78
2022/03/28 06:31:06;;;;;;;0.10;0.10;;;;;;;8.95;63.04;102619.16;5020461;28;20037;-78
2022/03/28 06:33:32;;;;;;;0.10;0.10;;;;;;;9.02;63.08;102627.25;5025175;28;20029;-81
2022/03/28 06:35:58;;;;;;;0.10;0.10;;;;;;;9.06;63.04;102623.75;5027082;28;20488;-82
2022/03/28 06:38:25;;;;;;;0.03;0.03;;;;;;;9.10;62.23;102629.09;5027354;28;20549;-81
2022/03/28 06:40:51;;;;;;;0.10;0.10;;;;;;;9.10;62.54;102623.78;5029086;28;20041;-83
2022/03/28 06:43:17;;;;;;;0.10;0.10;;;;;;;9.14;62.20;102621.22;5031045;28;20087;-81
2022/03/28 06:45:44;;;;;;;0.10;0.10;;;;;;;9.17;62.79;102625.66;5026474;28;20038;-81
2022/03/28 06:48:10;;;;;;;0.10;0.10;;;;;;;9.26;62.52;102620.53;5024430;28;20436;-81
2022/03/28 06:50:36;;;;;;;0.10;0.10;;;;;;;9.29;62.31;102620.56;5023477;28;20029;-81
2022/03/28 06:53:02;;;;;;;0.10;0.10;;;;;;;9.36;61.93;102622.44;5026544;28;20026;-79
2022/03/28 06:55:28;;;;;;;0.13;0.13;;;;;;;9.39;62.65;102626.88;5025559;28;20037;-79
2022/03/28 06:57:55;;;;;;;0.10;0.10;;;;;;;9.44;62.71;102625.16;5021565;28;20416;-80
2022/03/28 07:00:21;;;;;;;0.10;0.10;;;;;;;9.53;61.79;102624.41;5023458;28;20037;-83
2022/03/28 07:02:48;;;;;;;0.10;0.10;;;;;;;9.49;62.06;102614.66;5024698;28;20040;-83
2022/03/28 07:05:15;;;;;;;0.10;0.10;;;;;;;9.52;62.08;102617.31;5025231;28;20037;-79
2022/03/28 07:07:50;;;;;;;1.38;1.27;;;;;;;9.59;62.72;102610.38;5024034;28;20029;-81
2022/03/28 07:10:18;;;;;;;0.10;0.10;;;;;;;9.66;62.32;102605.16;5030419;28;20033;-82
2022/03/28 07:12:44;;;;;;;0.00;0.00;;;;;;;9.71;62.32;102611.41;5019675;28;20029;-82
2022/03/28 07:15:11;;;;;;;0.10;0.10;;;;;;;9.82;62.48;102606.25;5037893;28;20033;-82
2022/03/28 07:17:56;;;;;;;0.10;0.10;;;;;;;9.87;62.63;102615.13;5036844;28;20037;-81
2022/03/28 07:20:25;;;;;;;0.10;0.10;;;;;;;9.83;62.36;102610.66;5037883;28;20021;-82
2022/03/28 07:22:52;;;;;;;0.20;0.20;;;;;;;9.95;61.04;102606.38;5038169;28;20029;-82
2022/03/28 07:25:19;;;;;;;0.20;0.20;;;;;;;9.89;61.38;102604.53;5038216;28;20029;-81
2022/03/28 07:27:47;;;;;;;0.03;0.03;;;;;;;9.95;61.75;102611.69;5035286;28;20040;-81
2022/03/28 07:30:14;;;;;;;0.10;0.10;;;;;;;10.01;60.93;102604.69;5031784;28;20108;-81
2022/03/28 07:32:41;;;;;;;0.10;0.10;;;;;;;10.03;61.28;102600.28;5036300;28;20029;-81
2022/03/28 07:35:08;;;;;;;0.20;0.20;;;;;;;10.17;61.20;102596.91;5037104;28;20053;-81
2022/03/28 07:37:37;;;;;;;0.57;0.57;;;;;;;10.25;60.89;102596.97;5037579;28;20048;-81
2022/03/28 07:40:05;;;;;;;0.73;0.73;;;;;;;10.26;60.86;102602.28;5032751;28;20029;-81
2022/03/28 07:42:33;;;;;;;0.10;0.10;;;;;;;10.29;60.61;102581.13;5016625;28;20032;-81
2022/03/28 07:45:00;;;;;;;0.57;0.57;;;;;;;10.35;60.67;102589.13;5023329;28;20511;-81
2022/03/28 07:47:26;;;;;;;2.17;2.05;;;;;;;10.47;60.87;102585.72;5027400;28;20087;-82
2022/03/28 07:49:53;;;;;;;1.88;1.75;;;;;;;10.60;60.62;102586.69;5027559;28;20217;-81
2022/03/28 07:52:19;;;;;;;1.35;1.00;;;;;;;10.63;60.26;102581.44;5026998;28;20026;-81
2022/03/28 07:54:46;;;;;;;0.17;0.17;;;;;;;10.69;60.27;102585.88;5029961;28;20021;-80
2022/03/28 07:57:14;;;;;;;1.00;0.65;;;;;;;10.73;59.87;102581.50;5025894;28;20504;-81
2022/03/28 07:59:42;;;;;;;0.52;0.47;;;;;;;10.77;59.82;102583.31;5032559;28;20408;-81
2022/03/28 08:02:09;;;;;;;0.10;0.10;;;;;;;10.83;59.79;102583.34;5031794;28;20029;-80
2022/03/28 08:04:36;;;;;;;0.68;0.68;;;;;;;10.82;59.35;102595.69;5026132;28;20026;-81
2022/03/28 08:07:07;;;;;;;0.00;0.00;;;;;;;10.84;59.21;102591.31;5028245;28;20480;-81
2022/03/28 08:09:33;;;;;;;0.10;0.10;;;;;;;10.89;60.22;102583.41;5033504;28;20030;-81
2022/03/28 08:11:59;;;;;;;0.30;0.30;;;;;;;10.99;59.85;102587.88;5033646;28;20097;-82
2022/03/28 08:14:25;;;;;;;0.10;0.10;;;;;;;11.14;59.96;102599.44;5033931;28;20025;-81
2022/03/28 08:16:52;;;;;;;0.08;0.08;;;;;;;11.29;59.76;102588.91;5033189;28;20056;-81
2022/03/28 08:19:18;;;;;;;0.10;0.10;;;;;;;11.47;59.26;102580.16;5030801;28;20030;-81
2022/03/28 08:21:44;;;;;;;0.10;0.10;;;;;;;11.57;59.38;102591.69;5032019;28;20034;-81
2022/03/28 08:24:11;;;;;;;0.40;0.40;;;;;;;11.65;59.37;102587.31;5022561;28;20124;-81
2022/03/28 08:26:37;;;;;;;0.40;0.40;;;;;;;11.69;58.39;102576.69;5027082;28;20056;-81
2022/03/28 08:29:04;;;;;;;0.10;0.10;;;;;;;11.80;58.35;102572.28;5026492;28;20064;-81
2022/03/28 08:31:30;;;;;;;0.00;0.00;;;;;;;11.81;58.48;102576.72;5028535;28;20053;-81
2022/03/28 08:33:56;;;;;;;0.35;0.35;;;;;;;11.84;58.10;102582.06;5031003;28;20060;-81
2022/03/28 08:36:22;;;;;;;0.28;0.28;;;;;;;11.86;57.42;102572.31;5036007;28;20137;-81
2022/03/28 08:38:48;;;;;;;0.10;0.10;;;;;;;11.88;58.45;102562.56;5017683;28;20036;-81
2022/03/28 08:41:16;;;;;;;1.38;0.65;;;;;;;11.97;58.60;102572.38;5017331;28;20444;-81
2022/03/28 08:43:43;;;;;;;0.00;0.00;;;;;;;12.08;58.34;102567.09;5018597;28;20041;-81
2022/03/28 08:46:10;;;;;;;0.00;0.00;;;;;;;12.13;57.58;102563.53;5034948;28;20036;-81
2022/03/28 08:48:40;;;;;;;1.00;0.45;;;;;;;12.20;57.76;102560.88;5028772;28;20034;-81
2022/03/28 08:51:07;;;;;;;0.52;0.52;;;;;;;12.27;58.12;102554.69;5037798;28;20032;-81
2022/03/28 08:53:33;;;;;;;0.10;0.10;;;;;;;12.36;57.67;102551.16;5037994;28;20376;-82
2022/03/28 08:56:00;;;;;;;0.10;0.10;;;;;;;12.43;57.72;102552.91;5037205;28;20060;-81
2022/03/28 08:58:26;;;;;;;0.00;0.00;;;;;;;12.48;57.80;102551.13;5035784;28;20120;-81
2022/03/28 09:00:53;;;;;;;0.00;0.00;;;;;;;12.57;57.43;102553.81;5030436;28;20499;-81
2022/03/28 09:03:19;;;;;;;0.10;0.10;;;;;;;12.62;57.37;102540.47;5037485;28;20087;-81
2022/03/28 09:05:49;;;;;;;0.00;0.00;;;;;;;12.66;57.23;102541.38;5036164;28;20038;-81
2022/03/28 09:08:15;;;;;;;0.68;0.68;;;;;;;12.69;57.10;102541.38;5037851;28;20029;-80
2022/03/28 09:10:47;;;;;;;0.20;0.20;;;;;;;12.81;57.50;102546.69;5028379;28;20086;-81
2022/03/28 09:13:16;;;;;;;0.13;0.13;;;;;;;12.91;57.26;102543.09;5037742;28;20018;-81
2022/03/28 09:15:46;;;;;;;0.10;0.10;;;;;;;12.99;55.93;102543.06;5037585;28;20382;-81
2022/03/28 09:20:59;;;;;;;2.72;1.55;;;;;;;13.16;56.76;102545.69;5087140;28;20751;-77
2022/03/28 09:28:54;;;;;;;0.70;0.70;;;;;;;13.48;56.32;102547.34;5077094;28;20349;-77
2022/03/28 09:39:16;;;;;;;0.10;0.10;;;;;;;13.79;55.39;102533.88;5097590;27;1202943;-77
2022/03/28 09:41:45;;;;;;;0.15;0.15;;;;;;;13.83;55.55;102530.31;5116864;27;20038;-76
2022/03/28 09:44:11;;;;;;;0.03;0.03;;;;;;;13.93;56.08;102530.22;5121735;28;20026;-76
2022/03/28 09:46:37;;;;;;;0.10;0.10;;;;;;;14.01;55.15;102520.41;5122534;28;20038;-77
2022/03/28 09:49:04;;;;;;;0.00;0.00;;;;;;;14.09;55.25;102521.22;5125720;27;20020;-77
2022/03/28 09:51:34;;;;;;;0.00;0.00;;;;;;;14.14;55.35;102516.72;5123692;28;20480;-77
2022/03/28 09:54:00;;;;;;;0.00;0.00;;;;;;;14.26;54.97;102520.22;5111905;27;20034;-77
2022/03/28 09:56:27;;;;;;;0.45;0.32;;;;;;;14.32;54.76;102522.84;5116272;28;20039;-77
2022/03/28 09:58:56;;;;;;;1.20;0.63;;;;;;;14.42;54.34;102521.84;5120231;28;20023;-78
2022/03/28 10:01:42;;;;;;;0.35;0.22;;;;;;;14.60;54.41;102510.09;5116697;28;20023;-77
2022/03/28 10:04:11;;;;;;;0.10;0.10;;;;;;;14.62;54.75;102502.09;5120200;27;20047;-77
2022/03/28 10:06:38;;;;;;;0.10;0.10;;;;;;;14.72;54.61;102509.13;5120988;27;20091;-77
2022/03/28 10:09:07;;;;;;;0.10;0.10;;;;;;;14.74;53.77;102499.31;5120339;27;20035;-76
2022/03/28 10:11:34;;;;;;;0.65;0.65;;;;;;;14.75;54.14;102495.75;5119197;27;20030;-76
2022/03/28 10:14:00;;;;;;;0.00;0.00;;;;;;;14.83;54.17;102499.22;5116227;28;20031;-77
2022/03/28 10:16:27;;;;;;;1.45;0.40;;;;;;;14.92;54.11;102498.22;5119601;28;20035;-76
2022/03/28 10:18:53;;;;;;;0.10;0.10;;;;;;;14.98;53.73;102497.28;5120342;28;20059;-78
2022/03/28 10:21:37;;;;;;;0.10;0.10;;;;;;;15.12;53.82;102481.97;5119877;28;20024;-79
2022/03/28 10:24:24;;;;;;;0.52;0.52;;;;;;;15.09;53.58;102482.03;5119478;28;20024;-80
2022/03/28 10:26:55;;;;;;;0.50;0.50;;;;;;;14.99;53.78;102483.00;5120467;28;20023;-79
2022/03/28 10:29:23;;;;;;;0.40;0.40;;;;;;;14.95;53.87;102478.63;5116805;28;20028;-79
2022/03/28 10:34:52;;;;;;;0.10;0.10;;;;;;;14.99;53.94;102475.91;5089516;27;20412;-79
2022/03/28 10:37:36;;;;;;;0.38;0.38;;;;;;;15.02;53.84;102473.19;5086924;28;20440;-78
2022/03/28 10:40:40;;;;;;;0.73;0.73;;;;;;;15.04;53.98;102459.81;5087440;28;20029;-79
2022/03/28 10:43:11;;;;;;;0.00;0.00;;;;;;;14.99;53.80;102453.66;5090465;28;20084;-79
2022/03/28 10:45:44;;;;;;;0.25;0.25;;;;;;;14.98;53.86;102462.59;5083247;28;20111;-79
2022/03/28 10:48:10;;;;;;;;;;;;;;;15.13;53.67;102453.50;5086015;28;20020;-78
2022/03/28 10:50:49;;;;;;;0.10;0.10;;;;;;;15.08;53.92;102453.56;5085874;28;19908;-79
2022/03/28 10:55:59;;;;;;;0.95;0.45;;;;;;;15.28;53.71;102449.75;5107070;27;20415;-79
2022/03/28 11:09:47;;;;;;;0.60;0.60;;;;;;;15.66;53.00;102425.13;5068737;28;20391;-80
2022/03/28 11:12:17;;;;;;;0.00;0.00;;;;;;;15.65;52.91;102426.03;5046712;28;20401;-79
2022/03/28 11:17:25;;;;;;;0.73;0.73;;;;;;;15.79;52.95;102420.44;5070419;28;20481;-79
2022/03/28 11:19:53;;;;;;;0.47;0.47;;;;;;;15.90;52.88;102430.09;5066914;28;20041;-79
2022/03/28 11:22:36;;;;;;;1.02;1.02;;;;;;;15.99;52.13;102422.81;5059810;28;20032;-81
2022/03/28 11:25:03;;;;;;;0.00;0.00;;;;;;;16.06;52.05;102423.56;5062194;28;20498;-79
2022/03/28 11:27:32;;;;;;;0.00;0.00;;;;;;;16.08;51.68;102421.75;5063062;28;20032;-79
2022/03/28 11:32:47;;;;;;;0.15;0.15;;;;;;;16.08;51.50;102421.75;5001495;28;20059;-77
2022/03/28 11:35:16;;;;;;;0.95;0.95;;;;;;;16.24;52.02;102417.03;4998597;28;20034;-78
2022/03/28 11:37:42;;;;;;;0.50;0.50;;;;;;;16.36;52.14;102413.22;5007818;28;20027;-78
2022/03/28 11:40:09;;;;;;;0.88;0.80;;;;;;;16.44;51.85;102411.28;5005576;28;20030;-77
2022/03/28 11:42:36;;;;;;;0.10;0.10;;;;;;;16.49;51.27;102404.03;5003525;28;20026;-77
2022/03/28 11:45:09;;;;;;;0.47;0.47;;;;;;;16.61;51.40;102402.03;5002748;28;20547;-78
2022/03/28 11:47:37;;;;;;;1.00;0.95;;;;;;;16.71;51.38;102400.94;4997264;28;20862;-79
2022/03/28 11:50:07;;;;;;;0.57;0.57;;;;;;;16.81;51.33;102398.97;5001906;28;20480;-78
2022/03/28 11:52:34;;;;;;;0.10;0.10;;;;;;;16.94;50.63;102394.25;5000900;28;20050;-78
2022/03/28 11:55:01;;;;;;;0.10;0.10;;;;;;;16.98;50.63;102391.47;4999939;28;20046;-77
2022/03/28 12:00:23;;;;;;;0.00;0.00;;;;;;;17.14;50.53;102385.75;4999239;28;20088;-78
2022/03/28 12:02:54;;;;;;;1.55;0.43;;;;;;;17.22;50.75;102377.53;4997896;28;20033;-78
2022/03/28 12:05:30;;;;;;;1.15;1.08;;;;;;;17.36;50.72;102372.75;4996747;28;20026;-79
2022/03/28 12:07:57;;;;;;;1.00;1.00;;;;;;;17.42;50.33;102364.56;4998013;28;20044;-80
2022/03/28 12:10:25;;;;;;;0.55;0.55;;;;;;;17.55;49.55;102364.25;5000077;28;20038;-79
2022/03/28 12:12:53;;;;;;;0.22;0.22;;;;;;;17.70;49.71;102350.47;4998181;28;20165;-79